Aérodrome :
LOGIN :

S'inscrire | Disclaimer

   EN    FR    IT 

 










Légende :    VFR   VFR Marginal   IFR   IFR Intensif   IFR Très Intensif
Visi : 
Plafond : 
>= 8 km
>= 3000ft
5 à 8 km
1000 à 3000 ft
1500m à 5 km
500 à 1000 ft
800 à 1500m
200 à 500 ft
< 800m
< 200 ft
Symboles :   Orages  Brouillard  Fortes neiges  Fortes précipitations  Vent > 20 kt
SIGMETs :   Divers  Orages  Givrage  Turbulence  Onde Orograph.  Cendres Volcan.







- Altitude de l'aérodrome : 0 ft


ETEB - Ansbach Army Heliport

DERNIER METAR :
  • 190911Z AUTO 25006KT 9999 FEW014 SCT028 19/15 A3007 RMK AO2 SLP181 $

METARs EXPIRÉS :
  • 190856Z AUTO 27006KT 9999 SCT013 SCT020 BKN027 19/16 A3007 RMK AO2 CIG 013V030 SLP178 60000 T01900155 52012 $
  • 190756Z AUTO 23007KT 9999 SCT007 18/17 A3005 RMK AO2 RAB21E30 SLP174 P0000 T01760173 $
  • 190737Z AUTO 21008KT 9999 FEW006 17/17 A3005 RMK AO2 RAB21E30 SLP174 $
  • 190730Z AUTO 21006KT 9999 FEW011 FEW048 17/17 A3005 RMK AO2 RAB21E30 SLP174 $
  • 190721Z AUTO 21006KT 9999 -RA FEW007 FEW048 17/17 A3004 RMK AO2 RAB21 SLP170 $
  • 190656Z AUTO 23007KT 9999 SCT007 BKN037 17/17 A3005 RMK AO2 SLP174 T01710171 $
  • 190645Z AUTO 22006KT 9999 FEW006 FEW025 SCT039 17/17 A3004 RMK AO2 SLP170 $

TAF TAF ETEB
Valide du 19 à 05h jusqu'au 20 à 11h UTC


190504Z 1905/2011 28009KT 8000 -SHRA BKN020 QNH3001INS
BECMG 1910/1911 VRB06KT 9999 NSW BKN050 QNH3008INS
BECMG 2002/2003 VRB06KT 8000 -SHRA BKN040 OVC060 QNH3014INS TX23/1915Z TN15/2005Z
Pas de NOTAMs connus pour ce terrain.



MET'MAP, la Météo Aéronautique d'un coup d'oeil ! - Copyright ORBIFLY Décembre 2007 - Disclaimer

ORBIFLY MET'MAP TEAM :

Programmation & Développement : Alexandra Zaïnal
Conception & Développement : Baudouin d'Aumeries
Co-Programmation & Développement : Marc-Olivier Méhu
Soutien technique & logistique : Manuel Goepfert

Contact : metmap@orbifly.com




SOURCES & CREDITS :

   NOAA